createdAt,value
2019-03-28T00:00:12.633Z,6.69
2019-03-28T00:01:16.136Z,6.69
2019-03-28T00:02:20.046Z,6.71
2019-03-28T00:03:23.493Z,6.76
2019-03-28T00:04:26.990Z,6.70
2019-03-28T00:05:30.421Z,6.68
2019-03-28T00:06:33.850Z,6.65
2019-03-28T00:07:37.328Z,6.65
2019-03-28T00:08:41.117Z,6.61
2019-03-28T00:09:45.141Z,6.53
2019-03-28T00:10:48.623Z,6.55
2019-03-28T00:11:52.068Z,6.54
2019-03-28T00:12:55.504Z,6.52
2019-03-28T00:13:58.950Z,6.58
2019-03-28T00:15:02.531Z,6.59
2019-03-28T00:16:06.091Z,6.59
2019-03-28T00:17:09.570Z,6.56
2019-03-28T00:18:12.980Z,6.53
2019-03-28T00:19:16.407Z,6.55
2019-03-28T00:20:19.984Z,6.52
2019-03-28T00:21:23.460Z,6.52
2019-03-28T00:22:34.221Z,6.51
2019-03-28T00:23:42.131Z,6.49
2019-03-28T00:24:47.289Z,6.52
2019-03-28T00:25:50.809Z,6.51
2019-03-28T00:26:54.316Z,6.47
2019-03-28T00:27:57.769Z,6.44
2019-03-28T00:29:01.268Z,6.47
2019-03-28T00:30:06.522Z,6.45
2019-03-28T00:31:09.953Z,6.41
2019-03-28T00:32:13.478Z,6.47
2019-03-28T00:33:16.972Z,6.46
2019-03-28T00:34:20.406Z,6.47
2019-03-28T00:35:23.849Z,6.46
2019-03-28T00:36:27.357Z,6.48
2019-03-28T00:37:30.814Z,6.46
2019-03-28T00:38:34.245Z,6.42
2019-03-28T00:39:37.673Z,6.37
2019-03-28T00:40:41.195Z,6.35
2019-03-28T00:41:45.120Z,6.37
2019-03-28T00:42:48.672Z,6.42
2019-03-28T00:43:52.113Z,6.42
2019-03-28T00:44:55.547Z,6.46
2019-03-28T00:45:58.978Z,6.47
2019-03-28T00:47:02.417Z,6.48
2019-03-28T00:48:05.883Z,6.49
2019-03-28T00:49:09.311Z,6.51
2019-03-28T00:50:13.183Z,6.48
2019-03-28T00:51:16.684Z,6.44
2019-03-28T00:52:20.111Z,6.43
2019-03-28T00:53:23.572Z,6.44
2019-03-28T00:54:27.009Z,6.41
2019-03-28T00:55:30.454Z,6.40
2019-03-28T00:56:45.221Z,6.41
2019-03-28T00:57:39.080Z,6.41
2019-03-28T00:58:42.585Z,6.39
2019-03-28T00:59:46.039Z,6.41
2019-03-28T01:00:49.547Z,6.40
2019-03-28T01:01:52.972Z,6.42
2019-03-28T01:02:56.430Z,6.41
2019-03-28T01:03:59.937Z,6.38
2019-03-28T01:05:04.628Z,6.39
2019-03-28T01:06:08.127Z,6.42
2019-03-28T01:07:11.562Z,6.44
2019-03-28T01:08:15.021Z,6.42
2019-03-28T01:09:18.476Z,6.46
2019-03-28T01:10:22.228Z,6.48
2019-03-28T01:11:25.795Z,6.48
2019-03-28T01:12:29.290Z,6.51
2019-03-28T01:13:32.738Z,6.52
2019-03-28T01:14:36.166Z,6.52
2019-03-28T01:15:39.605Z,6.55
2019-03-28T01:16:43.035Z,6.53
2019-03-28T01:17:46.536Z,6.56
2019-03-28T01:18:50.057Z,6.55
2019-03-28T01:19:53.489Z,6.52
2019-03-28T01:20:56.917Z,6.49
2019-03-28T01:22:00.423Z,6.45
2019-03-28T01:23:03.856Z,6.43
2019-03-28T01:24:07.310Z,6.41
2019-03-28T01:25:10.878Z,6.43
2019-03-28T01:26:14.385Z,6.45
2019-03-28T01:27:17.887Z,6.45
2019-03-28T01:28:21.323Z,6.48
2019-03-28T01:29:24.800Z,6.48
2019-03-28T01:30:28.227Z,6.45
2019-03-28T01:31:31.662Z,6.44
2019-03-28T01:32:35.162Z,6.43
2019-03-28T01:33:38.611Z,6.45
2019-03-28T01:34:42.132Z,6.48
2019-03-28T01:35:45.560Z,6.49
2019-03-28T01:36:48.999Z,6.50
2019-03-28T01:37:52.425Z,6.49
2019-03-28T01:38:55.856Z,6.51
2019-03-28T01:39:59.308Z,6.52
2019-03-28T01:41:02.757Z,6.52
2019-03-28T01:42:06.345Z,6.47
2019-03-28T01:43:09.701Z,6.43
2019-03-28T01:44:13.203Z,6.46
2019-03-28T01:45:16.664Z,6.49
2019-03-28T01:46:20.124Z,6.52
2019-03-28T01:47:23.625Z,6.52
2019-03-28T01:48:27.057Z,6.48
2019-03-28T01:49:30.489Z,6.47
2019-03-28T01:50:33.941Z,6.45
2019-03-28T01:51:37.440Z,6.38
2019-03-28T01:52:40.874Z,6.50
2019-03-28T01:53:44.322Z,6.55
2019-03-28T01:54:47.825Z,6.56
2019-03-28T01:55:51.274Z,6.59
2019-03-28T01:56:54.709Z,6.57
2019-03-28T01:57:58.147Z,6.47
2019-03-28T01:59:01.660Z,6.54
2019-03-28T02:00:07.735Z,6.56
2019-03-28T02:01:11.323Z,6.54
2019-03-28T02:02:14.860Z,6.56
2019-03-28T02:03:18.314Z,6.55
2019-03-28T02:04:21.756Z,6.52
2019-03-28T02:05:25.185Z,6.51
2019-03-28T02:06:28.650Z,6.53
2019-03-28T02:07:32.085Z,6.54
2019-03-28T02:08:35.546Z,6.54
2019-03-28T02:09:39.044Z,6.54
2019-03-28T02:10:42.624Z,6.53
2019-03-28T02:11:46.080Z,6.48
2019-03-28T02:12:49.511Z,6.42
2019-03-28T02:13:53.079Z,6.43
2019-03-28T02:14:56.503Z,6.42
2019-03-28T02:15:59.947Z,6.41
2019-03-28T02:17:03.399Z,6.41
2019-03-28T02:18:06.967Z,6.43
2019-03-28T02:19:10.394Z,6.43
2019-03-28T02:20:13.960Z,6.44
2019-03-28T02:21:17.460Z,6.47
2019-03-28T02:22:20.911Z,6.48
2019-03-28T02:23:24.346Z,6.48
2019-03-28T02:24:27.784Z,6.50
2019-03-28T02:25:31.213Z,6.49
2019-03-28T02:26:34.654Z,6.45
2019-03-28T02:27:38.098Z,6.43
2019-03-28T02:28:41.543Z,6.39
2019-03-28T02:29:45.051Z,6.33
2019-03-28T02:30:48.497Z,6.32
2019-03-28T02:31:51.917Z,6.35
2019-03-28T02:32:55.382Z,6.37
2019-03-28T02:33:58.855Z,6.39
2019-03-28T02:35:02.337Z,6.43
2019-03-28T02:36:05.759Z,6.45
2019-03-28T02:37:09.330Z,6.42
2019-03-28T02:38:12.909Z,6.44
2019-03-28T02:39:16.456Z,6.48
2019-03-28T02:40:19.956Z,6.50
2019-03-28T02:41:23.380Z,6.46
2019-03-28T02:42:27.760Z,6.39
2019-03-28T02:43:31.546Z,6.37
2019-03-28T02:44:35.006Z,6.33
2019-03-28T02:45:38.594Z,6.31
2019-03-28T02:46:42.030Z,6.33
2019-03-28T02:47:45.464Z,6.39
2019-03-28T02:48:48.934Z,6.40
2019-03-28T02:49:52.368Z,6.36
2019-03-28T02:50:55.878Z,6.30
2019-03-28T02:51:59.321Z,6.32
2019-03-28T02:53:02.755Z,6.35
2019-03-28T02:54:06.278Z,6.38
2019-03-28T02:55:09.908Z,6.37
2019-03-28T02:56:13.420Z,6.33
2019-03-28T02:57:16.846Z,6.36
2019-03-28T02:58:20.284Z,6.42
2019-03-28T02:59:23.726Z,6.44
2019-03-28T03:00:27.158Z,6.45
2019-03-28T03:01:30.591Z,6.44
2019-03-28T03:02:34.015Z,6.43
2019-03-28T03:03:37.455Z,6.39
2019-03-28T03:04:40.906Z,6.35
2019-03-28T03:05:44.335Z,6.37
2019-03-28T03:06:47.847Z,6.35
2019-03-28T03:07:51.283Z,6.35
2019-03-28T03:08:54.855Z,6.40
2019-03-28T03:09:58.325Z,6.35
2019-03-28T03:11:01.762Z,6.32
2019-03-28T03:12:05.269Z,6.35
2019-03-28T03:13:09.996Z,6.39
2019-03-28T03:14:13.482Z,6.42
2019-03-28T03:15:17.075Z,6.41
2019-03-28T03:16:20.580Z,6.42
2019-03-28T03:17:24.014Z,6.40
2019-03-28T03:18:27.452Z,6.41
2019-03-28T03:19:30.878Z,6.38
2019-03-28T03:20:34.323Z,6.36
2019-03-28T03:21:37.784Z,6.34
2019-03-28T03:22:41.218Z,6.30
2019-03-28T03:23:44.654Z,6.26
2019-03-28T03:24:48.225Z,6.26
2019-03-28T03:25:51.742Z,6.24
2019-03-28T03:26:55.308Z,6.22
2019-03-28T03:27:59.395Z,6.18
2019-03-28T03:29:02.945Z,6.20
2019-03-28T03:30:09.921Z,6.18
2019-03-28T03:31:13.522Z,6.24
2019-03-28T03:32:17.010Z,6.21
2019-03-28T03:33:20.602Z,6.20
2019-03-28T03:34:24.014Z,6.17
2019-03-28T03:35:28.415Z,6.13
2019-03-28T03:36:32.002Z,6.13
2019-03-28T03:37:35.441Z,6.13
2019-03-28T03:38:38.864Z,6.15
2019-03-28T03:39:42.375Z,6.14
2019-03-28T03:40:45.878Z,6.14
2019-03-28T03:41:49.427Z,6.15
2019-03-28T03:42:52.838Z,6.12
2019-03-28T03:43:56.353Z,6.12
2019-03-28T03:44:59.860Z,6.12
2019-03-28T03:46:03.321Z,6.10
2019-03-28T03:47:06.798Z,6.05
2019-03-28T03:48:10.240Z,6.03
2019-03-28T03:49:13.670Z,6.01
2019-03-28T03:50:20.155Z,5.96
2019-03-28T03:51:23.681Z,5.93
2019-03-28T03:52:27.132Z,5.94
2019-03-28T03:53:30.549Z,5.96
2019-03-28T03:54:33.980Z,5.99
2019-03-28T03:55:37.479Z,6.03
2019-03-28T03:56:40.923Z,6.03
2019-03-28T03:57:44.390Z,6.06
2019-03-28T03:58:47.815Z,6.13
2019-03-28T03:59:51.253Z,6.15
2019-03-28T04:00:54.686Z,6.13
2019-03-28T04:01:58.134Z,6.14
2019-03-28T04:03:03.206Z,6.17
2019-03-28T04:04:06.874Z,6.21
2019-03-28T04:05:10.434Z,6.23
2019-03-28T04:06:13.874Z,6.26
2019-03-28T04:07:17.327Z,6.31
2019-03-28T04:08:20.760Z,6.32
2019-03-28T04:09:24.187Z,6.33
2019-03-28T04:10:27.685Z,6.33
2019-03-28T04:11:31.136Z,6.35
2019-03-28T04:12:34.570Z,6.37
2019-03-28T04:13:38.008Z,6.35
2019-03-28T04:14:41.433Z,6.30
2019-03-28T04:15:45.007Z,6.27
2019-03-28T04:16:48.524Z,6.21
2019-03-28T04:17:51.960Z,6.23
2019-03-28T04:18:55.392Z,6.22
2019-03-28T04:19:58.978Z,6.21
2019-03-28T04:21:05.666Z,6.23
2019-03-28T04:22:09.989Z,6.25
2019-03-28T04:23:13.626Z,6.23
2019-03-28T04:24:17.064Z,6.25
2019-03-28T04:25:20.500Z,6.27
2019-03-28T04:26:25.576Z,6.24
2019-03-28T04:27:29.016Z,6.22
2019-03-28T04:28:32.857Z,6.25
2019-03-28T04:29:36.284Z,6.22
2019-03-28T04:30:39.711Z,6.17
2019-03-28T04:31:43.193Z,6.18
2019-03-28T04:32:46.855Z,6.10
2019-03-28T04:33:50.428Z,6.08
2019-03-28T04:34:53.858Z,6.07
2019-03-28T04:35:57.300Z,6.12
2019-03-28T04:37:00.743Z,6.11
2019-03-28T04:38:04.243Z,6.16
2019-03-28T04:39:07.692Z,6.10
2019-03-28T04:40:11.456Z,6.04
2019-03-28T04:41:14.882Z,6.04
2019-03-28T04:42:18.326Z,6.11
2019-03-28T04:43:21.760Z,6.16
2019-03-28T04:44:25.197Z,6.21
2019-03-28T04:45:28.635Z,6.25
2019-03-28T04:46:32.131Z,6.26
2019-03-28T04:47:36.275Z,6.25
2019-03-28T04:48:39.767Z,6.22
2019-03-28T04:49:43.225Z,6.22
2019-03-28T04:50:46.642Z,6.20
2019-03-28T04:51:50.082Z,6.21
2019-03-28T04:52:53.602Z,6.23
2019-03-28T04:53:56.987Z,6.24
2019-03-28T04:55:00.467Z,6.22
2019-03-28T04:56:03.983Z,6.24
2019-03-28T04:57:07.427Z,6.23
2019-03-28T04:58:10.856Z,6.20
2019-03-28T04:59:14.839Z,6.18
2019-03-28T05:00:19.059Z,6.15
2019-03-28T05:01:22.568Z,6.12
2019-03-28T05:02:26.029Z,6.10
2019-03-28T05:03:29.467Z,6.10
2019-03-28T05:04:32.988Z,6.12
2019-03-28T05:05:36.554Z,6.14
2019-03-28T05:06:39.987Z,6.20
2019-03-28T05:07:43.435Z,6.20
2019-03-28T05:08:46.876Z,6.19
2019-03-28T05:09:50.379Z,6.24
2019-03-28T05:10:53.907Z,6.25
2019-03-28T05:11:57.405Z,6.27
2019-03-28T05:13:00.866Z,6.30
2019-03-28T05:14:04.356Z,6.32
2019-03-28T05:15:09.723Z,6.33
2019-03-28T05:16:13.153Z,6.34
2019-03-28T05:17:16.576Z,6.31
2019-03-28T05:18:20.039Z,6.32
2019-03-28T05:19:23.609Z,6.36
2019-03-28T05:20:27.046Z,6.32
2019-03-28T05:21:31.426Z,6.30
2019-03-28T05:22:35.253Z,6.26
2019-03-28T05:23:38.684Z,6.23
2019-03-28T05:24:42.113Z,6.23
2019-03-28T05:25:45.554Z,6.26
2019-03-28T05:26:48.981Z,6.26
2019-03-28T05:27:52.430Z,6.24
2019-03-28T05:28:57.879Z,6.23
2019-03-28T05:30:01.058Z,6.21
2019-03-28T05:31:04.631Z,6.20
2019-03-28T05:32:08.069Z,6.19
2019-03-28T05:33:11.525Z,6.16
2019-03-28T05:34:14.955Z,6.17
2019-03-28T05:35:18.454Z,6.17
2019-03-28T05:36:21.885Z,6.18
2019-03-28T05:37:25.313Z,6.19
2019-03-28T05:38:28.764Z,6.16
2019-03-28T05:39:32.199Z,6.14
2019-03-28T05:40:36.492Z,6.20
2019-03-28T05:41:40.095Z,6.24
2019-03-28T05:42:43.593Z,6.21
2019-03-28T05:43:47.079Z,6.21
2019-03-28T05:44:50.493Z,6.19
2019-03-28T05:45:53.923Z,6.20
2019-03-28T05:46:57.362Z,6.22
2019-03-28T05:48:00.906Z,6.23
2019-03-28T05:49:04.350Z,6.26
2019-03-28T05:50:08.119Z,6.29
2019-03-28T05:51:11.613Z,6.22
2019-03-28T05:52:15.136Z,6.25
2019-03-28T05:53:18.595Z,6.31
2019-03-28T05:54:22.033Z,6.34
2019-03-28T05:55:25.465Z,6.32
2019-03-28T05:56:28.900Z,6.35
2019-03-28T05:57:32.330Z,6.38
2019-03-28T05:58:35.797Z,6.33
2019-03-28T05:59:39.226Z,6.30
2019-03-28T06:00:42.666Z,6.26
2019-03-28T06:01:46.171Z,6.25
2019-03-28T06:02:50.476Z,6.25
2019-03-28T06:03:53.939Z,6.28
2019-03-28T06:04:57.371Z,6.31
2019-03-28T06:06:01.025Z,6.35
2019-03-28T06:07:04.427Z,6.35
2019-03-28T06:08:07.851Z,6.35
2019-03-28T06:09:11.364Z,6.29
2019-03-28T06:10:16.360Z,6.30
2019-03-28T06:11:20.284Z,6.36
2019-03-28T06:12:23.734Z,6.42
2019-03-28T06:13:27.180Z,6.48
2019-03-28T06:14:30.613Z,6.51
2019-03-28T06:15:34.083Z,6.49
2019-03-28T06:16:37.509Z,6.46
2019-03-28T06:17:40.945Z,6.44
2019-03-28T06:18:44.404Z,6.41
2019-03-28T06:19:47.906Z,6.38
2019-03-28T06:20:51.353Z,6.50
2019-03-28T06:21:54.778Z,6.42
2019-03-28T06:22:58.207Z,6.41
2019-03-28T06:24:01.654Z,6.44
2019-03-28T06:25:06.124Z,6.50
2019-03-28T06:26:09.733Z,6.45
2019-03-28T06:27:13.167Z,6.44
2019-03-28T06:28:16.595Z,6.49
2019-03-28T06:29:24.082Z,6.47
2019-03-28T06:30:25.283Z,6.51
2019-03-28T06:31:28.716Z,6.57
2019-03-28T06:32:42.226Z,6.61
2019-03-28T06:33:38.529Z,6.60
2019-03-28T06:34:42.015Z,6.57
2019-03-28T06:35:45.447Z,6.59
2019-03-28T06:36:48.952Z,6.60
2019-03-28T06:37:52.384Z,6.63
2019-03-28T06:38:55.838Z,6.62
2019-03-28T06:39:59.347Z,6.62
2019-03-28T06:41:02.779Z,6.61
2019-03-28T06:42:06.273Z,6.63
2019-03-28T06:43:11.489Z,6.64
2019-03-28T06:44:14.867Z,6.42
2019-03-28T06:45:18.367Z,6.71
2019-03-28T06:46:21.820Z,6.73
2019-03-28T06:47:25.254Z,6.75
2019-03-28T06:48:28.692Z,6.75
2019-03-28T06:49:32.151Z,6.77
2019-03-28T06:50:35.580Z,6.80
2019-03-28T06:51:39.009Z,6.84
2019-03-28T06:52:42.446Z,6.84
2019-03-28T06:53:45.949Z,6.85
2019-03-28T06:54:49.403Z,6.87
2019-03-28T06:55:52.849Z,6.89
2019-03-28T06:56:56.278Z,6.88
2019-03-28T06:57:59.697Z,6.87
2019-03-28T06:59:03.148Z,6.88
2019-03-28T07:00:08.967Z,6.92
2019-03-28T07:01:12.530Z,6.98
2019-03-28T07:02:15.915Z,6.95
2019-03-28T07:03:19.415Z,6.99
2019-03-28T07:04:22.873Z,7.07
2019-03-28T07:05:26.370Z,7.09
2019-03-28T07:06:29.804Z,7.11
2019-03-28T07:07:33.246Z,7.09
2019-03-28T07:08:36.674Z,7.12
2019-03-28T07:09:40.130Z,7.16
2019-03-28T07:10:43.615Z,7.16
2019-03-28T07:11:47.140Z,7.17
2019-03-28T07:12:50.571Z,7.17
2019-03-28T07:13:54.002Z,7.17
2019-03-28T07:14:59.624Z,7.19
2019-03-28T07:16:02.607Z,7.25
2019-03-28T07:17:06.107Z,7.25
2019-03-28T07:18:09.543Z,7.28
2019-03-28T07:19:13.036Z,7.31
2019-03-28T07:20:16.670Z,7.26
2019-03-28T07:21:20.154Z,7.28
2019-03-28T07:22:23.584Z,7.30
2019-03-28T07:23:27.015Z,7.31
2019-03-28T07:24:30.457Z,7.34
2019-03-28T07:25:33.909Z,7.39
2019-03-28T07:26:37.430Z,7.42
2019-03-28T07:27:40.865Z,7.45
2019-03-28T07:28:44.301Z,7.47
2019-03-28T07:29:51.108Z,7.47
2019-03-28T07:30:52.966Z,7.49
2019-03-28T07:31:56.397Z,7.49
2019-03-28T07:32:59.860Z,7.53
2019-03-28T07:34:03.324Z,7.56
2019-03-28T07:35:07.311Z,7.61
2019-03-28T07:36:10.847Z,7.60
2019-03-28T07:37:14.344Z,7.60
2019-03-28T07:38:17.850Z,7.60
2019-03-28T07:39:21.283Z,7.63
2019-03-28T07:40:25.607Z,7.62
2019-03-28T07:41:29.203Z,7.58
2019-03-28T07:42:32.640Z,7.60
2019-03-28T07:43:36.066Z,7.65
2019-03-28T07:44:39.499Z,7.73
2019-03-28T07:45:43.000Z,7.81
2019-03-28T07:46:47.759Z,7.77
2019-03-28T07:47:51.504Z,7.77
2019-03-28T07:48:55.167Z,7.79
2019-03-28T07:49:58.649Z,7.74
2019-03-28T07:51:02.081Z,7.74
2019-03-28T07:52:05.582Z,7.75
2019-03-28T07:53:09.157Z,7.78
2019-03-28T07:54:13.338Z,7.81
2019-03-28T07:55:17.225Z,7.80
2019-03-28T07:56:20.973Z,7.78
2019-03-28T07:57:24.447Z,7.81
2019-03-28T07:58:28.002Z,7.84
2019-03-28T07:59:31.505Z,7.89
2019-03-28T08:00:35.002Z,7.93
2019-03-28T08:01:38.466Z,7.95
2019-03-28T08:02:41.963Z,7.99
2019-03-28T08:03:45.383Z,7.99
2019-03-28T08:04:48.886Z,7.95
2019-03-28T08:05:52.385Z,7.89
2019-03-28T08:06:55.936Z,7.92
2019-03-28T08:07:59.451Z,7.97
2019-03-28T08:09:03.730Z,7.97
2019-03-28T08:10:08.896Z,8.02
2019-03-28T08:11:12.405Z,8.06
2019-03-28T08:12:22.623Z,8.12
2019-03-28T08:13:21.133Z,8.21
2019-03-28T08:14:24.700Z,8.24
2019-03-28T08:15:28.210Z,8.24
2019-03-28T08:16:31.809Z,8.21
2019-03-28T08:17:35.330Z,8.25
2019-03-28T08:18:38.781Z,8.25
2019-03-28T08:19:42.537Z,8.28
2019-03-28T08:20:46.076Z,8.33
2019-03-28T08:21:49.673Z,8.33
2019-03-28T08:22:53.133Z,8.28
2019-03-28T08:23:56.588Z,8.25
2019-03-28T08:25:00.183Z,8.27
2019-03-28T08:26:03.875Z,8.26
2019-03-28T08:27:07.387Z,8.35
2019-03-28T08:28:10.931Z,8.41
2019-03-28T08:29:14.313Z,8.47
2019-03-28T08:30:20.810Z,8.53
2019-03-28T08:31:24.383Z,8.57
2019-03-28T08:32:28.358Z,8.59
2019-03-28T08:33:32.664Z,8.59
2019-03-28T08:34:36.351Z,8.68
2019-03-28T08:35:40.024Z,8.68
2019-03-28T08:36:44.822Z,8.64
2019-03-28T08:37:48.503Z,8.59
2019-03-28T08:38:52.751Z,8.59
2019-03-28T08:39:56.326Z,8.63
2019-03-28T08:40:59.770Z,8.65
2019-03-28T08:42:03.195Z,8.65
2019-03-28T08:43:06.876Z,8.71
2019-03-28T08:44:10.778Z,8.73
2019-03-28T08:45:14.684Z,8.76
2019-03-28T08:46:18.126Z,8.78
2019-03-28T08:47:21.559Z,8.81
2019-03-28T08:48:25.259Z,8.82
2019-03-28T08:49:28.705Z,8.83
2019-03-28T08:50:32.138Z,8.79
2019-03-28T08:51:35.638Z,8.79
2019-03-28T08:52:39.155Z,8.85
2019-03-28T08:53:42.719Z,8.90
2019-03-28T08:54:46.167Z,8.95
2019-03-28T08:55:50.244Z,8.95
2019-03-28T08:56:53.805Z,8.90
2019-03-28T08:57:57.249Z,8.97
2019-03-28T08:59:00.761Z,8.99
2019-03-28T09:00:07.201Z,8.97
2019-03-28T09:01:10.840Z,8.93
2019-03-28T09:02:14.288Z,8.92
2019-03-28T09:03:17.874Z,8.91
2019-03-28T09:04:21.360Z,8.90
2019-03-28T09:05:25.050Z,8.94
2019-03-28T09:06:28.645Z,8.96
2019-03-28T09:07:32.067Z,9.03
2019-03-28T09:08:35.678Z,9.13
2019-03-28T09:09:39.325Z,9.13
2019-03-28T09:10:42.969Z,9.15
2019-03-28T09:11:46.473Z,9.18
2019-03-28T09:12:49.914Z,9.18
2019-03-28T09:13:53.414Z,9.24
2019-03-28T09:14:56.897Z,9.26
2019-03-28T09:16:00.503Z,9.31
2019-03-28T09:17:04.036Z,9.34
2019-03-28T09:18:07.489Z,9.40
2019-03-28T09:19:11.004Z,9.48
2019-03-28T09:20:14.671Z,9.43
2019-03-28T09:21:18.240Z,9.43
2019-03-28T09:22:21.746Z,9.49
2019-03-28T09:23:25.177Z,9.44
2019-03-28T09:24:28.691Z,9.44
2019-03-28T09:25:32.130Z,9.43
2019-03-28T09:26:35.697Z,9.50
2019-03-28T09:27:39.265Z,9.47
2019-03-28T09:28:42.932Z,9.48
2019-03-28T09:29:46.569Z,9.51
2019-03-28T09:30:50.073Z,9.56
2019-03-28T09:31:53.577Z,9.65
2019-03-28T09:32:57.223Z,9.75
2019-03-28T09:34:00.829Z,9.83
2019-03-28T09:35:06.213Z,9.86
2019-03-28T09:36:09.782Z,9.81
2019-03-28T09:37:13.371Z,9.85
2019-03-28T09:38:17.062Z,9.88
2019-03-28T09:39:20.548Z,9.88
2019-03-28T09:40:24.099Z,9.90
2019-03-28T09:41:27.483Z,9.91
2019-03-28T09:42:31.118Z,9.98
2019-03-28T09:43:34.544Z,9.99
2019-03-28T09:44:38.135Z,10.04
2019-03-28T09:45:41.759Z,10.10
2019-03-28T09:46:45.298Z,10.08
2019-03-28T09:47:48.862Z,10.13
2019-03-28T09:48:52.299Z,10.20
2019-03-28T09:49:55.893Z,10.24
2019-03-28T09:51:00.334Z,10.24
2019-03-28T09:52:03.951Z,10.29
2019-03-28T09:53:07.389Z,10.31
2019-03-28T09:54:10.830Z,10.34
2019-03-28T09:55:14.362Z,10.38
2019-03-28T09:57:34.187Z,10.42
2019-03-28T09:58:37.628Z,10.32
2019-03-28T09:59:41.058Z,10.26
2019-03-28T10:00:44.569Z,10.32
2019-03-28T10:01:48.007Z,10.41
2019-03-28T10:02:51.509Z,10.53
2019-03-28T10:03:54.963Z,10.63
2019-03-28T10:04:58.422Z,10.58
2019-03-28T10:14:41.624Z,10.64
2019-03-28T10:44:04.476Z,11.71
2019-03-28T11:03:54.447Z,12.38
2019-03-28T11:04:57.883Z,12.48
2019-03-28T11:14:13.778Z,12.59
2019-03-28T11:15:17.350Z,12.60
2019-03-28T11:16:20.801Z,12.62
2019-03-28T11:17:24.319Z,12.62
2019-03-28T11:24:38.827Z,12.45
2019-03-28T11:25:42.234Z,12.43
2019-03-28T11:26:45.708Z,12.55
2019-03-28T11:27:49.654Z,12.66
2019-03-28T11:33:32.940Z,12.08
2019-03-28T11:34:36.367Z,12.50
2019-03-28T11:35:39.814Z,12.49
2019-03-28T11:36:43.271Z,12.52
2019-03-28T11:37:46.705Z,12.50
2019-03-28T11:43:57.274Z,12.73
2019-03-28T11:53:26.748Z,12.98
2019-03-28T11:54:30.152Z,13.20
2019-03-28T11:55:33.649Z,13.45
2019-03-28T12:05:25.520Z,14.20
2019-03-28T12:06:28.972Z,14.38
2019-03-28T12:07:32.427Z,14.61
2019-03-28T12:08:35.867Z,14.84
2019-03-28T12:09:39.383Z,14.89
2019-03-28T12:10:42.821Z,15.06
2019-03-28T12:11:46.266Z,15.24
2019-03-28T12:12:49.736Z,15.35
2019-03-28T12:13:53.172Z,15.47
2019-03-28T12:14:56.605Z,15.39
2019-03-28T12:24:08.373Z,16.23
2019-03-28T12:25:11.966Z,15.98
2019-03-28T12:26:15.412Z,15.54
2019-03-28T12:27:18.849Z,15.41
2019-03-28T12:28:22.385Z,15.30
2019-03-28T12:29:25.896Z,15.19
2019-03-28T12:30:29.315Z,15.19
2019-03-28T12:31:33.398Z,15.22
2019-03-28T12:32:37.000Z,15.14
2019-03-28T12:33:40.442Z,15.16
2019-03-28T12:34:43.877Z,15.12
2019-03-28T12:35:47.323Z,15.08
2019-03-28T12:36:50.776Z,15.35
2019-03-28T12:37:54.224Z,15.28
2019-03-28T12:38:57.754Z,15.27
2019-03-28T12:40:01.216Z,15.41
2019-03-28T12:41:04.721Z,15.93
2019-03-28T12:42:08.164Z,15.85
2019-03-28T12:43:11.618Z,15.83
2019-03-28T12:44:15.048Z,15.75
2019-03-28T12:45:18.626Z,15.56
2019-03-28T12:46:22.146Z,15.43
2019-03-28T12:47:25.589Z,15.29
2019-03-28T12:48:29.081Z,15.06
2019-03-28T12:49:32.467Z,14.77
2019-03-28T12:50:35.903Z,14.61
2019-03-28T12:51:39.340Z,14.35
2019-03-28T12:52:42.768Z,14.32
2019-03-28T12:53:46.233Z,14.28
2019-03-28T12:54:49.681Z,14.42
2019-03-28T12:55:53.119Z,15.13
2019-03-28T12:56:58.175Z,15.56
2019-03-28T12:58:01.839Z,16.05
2019-03-28T12:59:05.321Z,16.58
2019-03-28T13:00:10.796Z,17.01
2019-03-28T13:01:14.246Z,16.83
2019-03-28T13:02:28.658Z,16.36
2019-03-28T13:03:22.839Z,16.04
2019-03-28T13:04:26.307Z,15.49
2019-03-28T13:05:29.766Z,14.93
2019-03-28T13:06:33.596Z,14.89
2019-03-28T13:07:37.190Z,15.90
2019-03-28T13:08:40.645Z,17.19
2019-03-28T13:09:44.087Z,17.98
2019-03-28T13:10:47.520Z,17.84
2019-03-28T13:11:50.955Z,17.59
2019-03-28T13:12:54.392Z,17.60
2019-03-28T13:13:57.850Z,17.42
2019-03-28T13:15:01.288Z,17.71
2019-03-28T13:16:05.479Z,17.82
2019-03-28T13:17:09.151Z,17.56
2019-03-28T13:18:12.600Z,17.43
2019-03-28T13:19:16.068Z,17.76
2019-03-28T13:20:22.149Z,18.28
2019-03-28T13:21:24.757Z,17.91
2019-03-28T13:22:28.630Z,17.75
2019-03-28T13:23:32.211Z,17.60
2019-03-28T13:24:35.678Z,17.23
2019-03-28T13:25:39.138Z,17.05
2019-03-28T13:26:42.562Z,17.07
2019-03-28T13:27:46.019Z,16.54
2019-03-28T13:28:49.460Z,16.22
2019-03-28T13:29:55.090Z,16.08
2019-03-28T13:30:58.063Z,16.00
2019-03-28T13:32:01.501Z,16.09
2019-03-28T13:33:05.010Z,16.08
2019-03-28T13:34:08.470Z,16.05
2019-03-28T13:35:12.107Z,15.89
2019-03-28T13:36:15.626Z,15.80
2019-03-28T13:37:19.088Z,15.72
2019-03-28T13:38:22.529Z,15.65
2019-03-28T13:39:25.989Z,15.35
2019-03-28T13:40:29.420Z,15.16
2019-03-28T13:41:32.857Z,15.05
2019-03-28T13:42:37.027Z,14.86
2019-03-28T13:43:40.464Z,14.83
2019-03-28T13:44:43.928Z,14.71
2019-03-28T13:45:47.356Z,14.65
2019-03-28T13:46:50.793Z,14.71
2019-03-28T13:47:54.541Z,14.69
2019-03-28T13:48:57.919Z,14.68
2019-03-28T13:50:01.374Z,14.56
2019-03-28T13:51:04.813Z,14.51
2019-03-28T13:52:08.326Z,14.52
2019-03-28T13:53:11.761Z,14.57
2019-03-28T13:54:15.351Z,14.36
2019-03-28T13:55:18.963Z,14.34
2019-03-28T13:56:22.385Z,14.22
2019-03-28T13:57:25.820Z,14.16
2019-03-28T13:58:29.247Z,14.12
2019-03-28T13:59:35.327Z,14.07
2019-03-28T14:00:37.863Z,14.03
2019-03-28T14:01:41.300Z,13.93
2019-03-28T14:02:55.664Z,13.94
2019-03-28T14:03:49.982Z,13.97
2019-03-28T14:04:53.909Z,13.94
2019-03-28T14:05:57.487Z,13.87
2019-03-28T14:07:00.996Z,13.89
2019-03-28T14:08:04.506Z,14.03
2019-03-28T14:09:08.017Z,14.07
2019-03-28T14:10:11.669Z,14.04
2019-03-28T14:11:15.117Z,14.04
2019-03-28T14:12:18.646Z,13.90
2019-03-28T14:13:22.076Z,13.89
2019-03-28T14:14:25.508Z,14.03
2019-03-28T14:15:29.095Z,13.96
2019-03-28T14:16:32.616Z,13.94
2019-03-28T14:17:36.134Z,13.96
2019-03-28T14:18:39.626Z,14.00
2019-03-28T14:19:43.097Z,13.93
2019-03-28T14:20:46.588Z,13.91
2019-03-28T14:21:50.093Z,14.08
2019-03-28T14:22:53.527Z,14.34
2019-03-28T14:23:56.980Z,14.51
2019-03-28T14:25:00.518Z,14.51
2019-03-28T14:26:04.087Z,14.38
2019-03-28T14:27:07.547Z,14.33
2019-03-28T14:28:10.961Z,14.18
2019-03-28T14:29:14.485Z,14.11
2019-03-28T14:30:18.269Z,13.99
2019-03-28T14:31:21.729Z,13.96
2019-03-28T14:32:25.239Z,13.97
2019-03-28T14:33:28.674Z,13.95
2019-03-28T14:34:32.115Z,13.92
2019-03-28T14:35:35.665Z,13.70
2019-03-28T14:36:39.170Z,13.67
2019-03-28T14:37:42.607Z,13.51
2019-03-28T14:38:46.066Z,13.52
2019-03-28T14:39:49.502Z,13.46
2019-03-28T14:40:52.967Z,13.39
2019-03-28T14:41:56.398Z,13.33
2019-03-28T14:42:59.838Z,13.27
2019-03-28T14:44:03.271Z,13.24
2019-03-28T14:45:10.972Z,13.19
2019-03-28T14:46:14.423Z,13.18
2019-03-28T14:47:17.933Z,13.17
2019-03-28T14:48:21.514Z,13.15
2019-03-28T14:49:25.093Z,13.13
2019-03-28T14:50:39.389Z,13.16
2019-03-28T14:51:42.945Z,13.20
2019-03-28T14:52:46.334Z,13.20
2019-03-28T14:53:49.773Z,13.19
2019-03-28T14:54:53.222Z,13.13
2019-03-28T14:55:57.817Z,13.18
2019-03-28T14:57:02.281Z,13.21
2019-03-28T14:58:07.141Z,13.20
2019-03-28T14:59:11.618Z,13.19
2019-03-28T15:00:34.204Z,13.12
2019-03-28T15:01:37.663Z,13.06
2019-03-28T15:02:41.108Z,12.99
2019-03-28T15:03:44.556Z,12.99
2019-03-28T15:04:48.059Z,13.03
2019-03-28T15:05:51.622Z,13.13
2019-03-28T15:06:55.094Z,13.18
2019-03-28T15:07:58.562Z,13.16
2019-03-28T15:09:01.983Z,13.19
2019-03-28T15:10:07.019Z,13.25
2019-03-28T15:11:10.521Z,13.26
2019-03-28T15:12:13.975Z,13.25
2019-03-28T15:13:17.545Z,13.22
2019-03-28T15:14:21.055Z,13.25
2019-03-28T15:15:24.563Z,13.27
2019-03-28T15:16:28.011Z,13.29
2019-03-28T15:17:31.465Z,13.29
2019-03-28T15:18:34.913Z,13.34
2019-03-28T15:19:38.339Z,13.35
2019-03-28T15:20:41.849Z,13.36
2019-03-28T15:21:45.308Z,13.36
2019-03-28T15:22:48.757Z,13.33
2019-03-28T15:23:52.272Z,13.36
2019-03-28T15:24:55.697Z,13.40
2019-03-28T15:25:59.141Z,13.36
2019-03-28T15:27:03.058Z,13.32
2019-03-28T15:28:06.569Z,13.32
2019-03-28T15:29:10.016Z,13.31
2019-03-28T15:30:14.283Z,13.27
2019-03-28T15:31:17.708Z,13.15
2019-03-28T15:32:21.248Z,13.16
2019-03-28T15:33:38.368Z,13.13
2019-03-28T15:34:29.903Z,13.14
2019-03-28T15:35:33.335Z,13.13
2019-03-28T15:36:36.753Z,13.08
2019-03-28T15:37:40.276Z,13.09
2019-03-28T15:38:43.712Z,13.15
2019-03-28T15:39:47.142Z,13.06
2019-03-28T15:40:50.566Z,13.01
2019-03-28T15:41:53.984Z,13.05
2019-03-28T15:42:57.446Z,13.10
2019-03-28T15:44:00.877Z,13.09
2019-03-28T15:45:07.242Z,13.07